Flight Track Log - Related Links

Times and Time Zones

All times are in EDT time to prevent confusion due to time zone crossing. See the N945HC flight status page for this flight to view local times or setup timezone preferences in your user account.

Time Position Orientation Groundspeed Altitude Reporting Facility
EDT Latitude Longitude Course Direction KTS MPH feet Rate Location/Type
Fri 10:02:04 AM 42.9500 -87.8833 80° East 171 197 1,600  Level KMKE
Fri 10:02:28 AM 42.9536 -87.8567 80° East 181 208 2,200 2,581 Climbing Chicago Center
Fri 10:03:30 AM 42.9175 -87.8058 134° Southeast 229 264 5,300 3,048 Climbing Chicago Center
Fri 10:04:32 AM 42.8606 -87.8856 226° Southwest 270 311 8,500 3,097 Climbing Chicago Center
Fri 10:05:34 AM 42.8228 -87.9842 242° Southwest 291 335 11,700 2,806 Climbing Chicago Center
Fri 10:06:36 AM 42.7408 -88.0511 211° Southwest 355 409 14,300 2,903 Climbing Chicago Center
Fri 10:07:38 AM 42.6269 -88.0692 187° South 411 473 17,700 3,097 Climbing Chicago Center
Fri 10:08:40 AM 42.5056 -88.0781 183° South 432 497 20,700 2,736 Climbing Chicago Center
Fri 10:09:43 AM 42.3833 -88.0275 163° South 459 528 23,400 2,613 Climbing Chicago Center
Fri 10:10:44 AM 42.2353 -87.9597 161° South 482 555 26,100 2,488 Climbing Chicago Center
Fri 10:11:46 AM 42.1014 -87.9181 167° South 495 570 28,500 2,177 Climbing Chicago Center
Fri 10:12:48 AM 41.9644 -87.8822 169° South 501 577 30,600 1,935 Climbing Chicago Center
Fri 10:13:50 AM 41.8250 -87.8458 169° South 509 586 32,500 1,536 Climbing Chicago Center
Fri 10:14:53 AM 41.6831 -87.8094 169° South 516 594 33,800 1,152 Climbing Chicago Center
Fri 10:15:55 AM 41.5378 -87.7703 169° South 525 604 34,900 919 Climbing Chicago Center
Fri 10:16:57 AM 41.3892 -87.7239 167° South 535 616 35,700 1,161 Climbing Chicago Center
Fri 10:17:59 AM 41.2161 -87.6606 165° South 534 615 37,300 1,500 Climbing Chicago Center
Fri 10:19:01 AM 41.0767 -87.6103 165° South 524 603 38,800 1,306 Climbing Chicago Center
Fri 10:20:03 AM 40.9411 -87.5614 165° South 509 586 40,000 968 Climbing Chicago Center
Fri 10:21:05 AM 40.8069 -87.5142 165° South 501 577 40,800 484 Climbing Chicago Center
Fri 10:22:07 AM 40.6739 -87.4667 165° South 498 573 41,000 97 Climbing Chicago Center
Fri 10:23:09 AM 40.5369 -87.4200 165° South 507 583 41,000  Level Chicago Center
Fri 10:24:11 AM 40.3839 -87.3672 165° South 505 581 41,000  Level Chicago Center
Fri 10:25:13 AM 40.2511 -87.3219 165° South 499 574 41,000  Level Chicago Center
Fri 10:26:16 AM 40.1192 -87.2719 164° South 496 571 41,000  Level Chicago Center
Fri 10:26:47 AM 40.0347 -87.2467 167° South 503 579 41,000  Level Indianapolis Center
Fri 10:27:49 AM 39.8994 -87.1992 165° South 507 583 41,000  Level Indianapolis Center
Fri 10:28:52 AM 39.7622 -87.1539 166° South 510 587 41,000  Level Indianapolis Center
Fri 10:29:54 AM 39.5994 -87.0964 165° South 510 587 41,000  Level Indianapolis Center
Fri 10:30:56 AM 39.4625 -87.0506 166° South 509 586 41,000  Level Indianapolis Center
Fri 10:31:58 AM 39.3253 -87.0053 166° South 512 589 41,000  Level Indianapolis Center
Fri 10:33:00 AM 39.1883 -86.9592 165° South 511 588 41,000  Level Indianapolis Center
Fri 10:34:02 AM 39.0417 -86.9108 166° South 514 592 41,000  Level Indianapolis Center
Fri 10:35:04 AM 38.9025 -86.8642 165° South 513 590 41,000  Level Indianapolis Center
Fri 10:36:06 AM 38.7608 -86.8161 165° South 519 597 41,000  Level Indianapolis Center
Fri 10:37:08 AM 38.6203 -86.7703 166° South 516 594 41,000  Level Indianapolis Center
Fri 10:38:10 AM 38.4503 -86.7144 166° South 518 596 41,000  Level Indianapolis Center
Fri 10:39:12 AM 38.3094 -86.6661 165° South 514 592 41,000  Level Indianapolis Center
Fri 10:40:14 AM 38.1683 -86.6217 166° South 515 593 41,000  Level Indianapolis Center
Fri 10:41:16 AM 38.0286 -86.5761 166° South 514 592 41,000  Level Indianapolis Center
Fri 10:42:18 AM 37.8881 -86.5314 166° South 515 593 41,000  Level Indianapolis Center
Fri 10:43:20 AM 37.7539 -86.4922 167° South 509 586 41,000  Level Indianapolis Center
Fri 10:44:22 AM 37.6133 -86.4464 166° South 513 590 41,000  Level Indianapolis Center
Fri 10:45:24 AM 37.4481 -86.3931 166° South 516 594 41,000  Level Indianapolis Center
Fri 10:46:26 AM 37.3075 -86.3461 165° South 517 595 41,000  Level Indianapolis Center
Fri 10:47:28 AM 37.1669 -86.3031 166° South 512 589 41,000  Level Indianapolis Center
Fri 10:48:30 AM 37.0258 -86.2575 166° South 514 592 41,000  Level Indianapolis Center
Fri 10:49:32 AM 36.8844 -86.2131 166° South 515 593 41,000  Level Indianapolis Center
Fri 10:50:32 AM 36.7319 -86.1656 166° South 518 596 41,000  Level Memphis Center
Fri 10:51:36 AM 36.5997 -86.1228 165° South 520 598 41,000  Level Indianapolis Center
Fri 10:52:38 AM 36.4589 -86.0794 166° South 514 592 41,000  Level Indianapolis Center
Fri 10:53:32 AM 36.3144 -86.0325 165° South 512 589 41,000  Level Memphis Center
Fri 10:54:32 AM 36.1775 -85.9911 166° South 512 589 41,000  Level Memphis Center
Fri 10:55:32 AM 36.0383 -85.9472 166° South 512 589 41,000  Level Memphis Center
Fri 10:56:32 AM 35.8972 -85.9061 167° South 512 589 41,000  Level Memphis Center
Fri 10:58:20 AM 35.6550 -85.8356 167° South 507 583 41,000  Level Atlanta Center
Fri 10:59:20 AM 35.5158 -85.7917 166° South 507 583 41,000  Level Atlanta Center
Fri 11:00:20 AM 35.3725 -85.7503 167° South 512 589 41,000  Level Atlanta Center
Fri 11:01:20 AM 35.2333 -85.7067 166° South 512 589 41,000 100 Level Atlanta Center
Fri 11:02:20 AM 35.0942 -85.6658 166° South 517 595 41,200 950 Climbing Atlanta Center
Fri 11:03:20 AM 34.9569 -85.6253 166° South 511 588 42,900 900 Climbing Atlanta Center
Fri 11:04:20 AM 34.8300 -85.5875 166° South 494 568 43,000 50 Climbing Atlanta Center
Fri 11:05:20 AM 34.7011 -85.5472 166° South 487 560 43,000  Level Atlanta Center
Fri 11:06:20 AM 34.5744 -85.5119 167° South 481 554 43,000  Level Atlanta Center
Fri 11:07:20 AM 34.4475 -85.4744 166° South 476 548 43,000  Level Atlanta Center
Fri 11:08:20 AM 34.3206 -85.4372 166° South 466 536 43,000  Level Atlanta Center
Fri 11:09:20 AM 34.1936 -85.4000 166° South 474 545 43,000  Level Atlanta Center
Fri 11:10:20 AM 34.0647 -85.3628 167° South 474 545 43,000  Level Atlanta Center
Fri 11:11:20 AM 33.9378 -85.3233 166° South 474 545 43,000  Level Atlanta Center
Fri 11:12:20 AM 33.8108 -85.2914 168° South 468 539 43,000 -50 Level Atlanta Center
Fri 11:13:20 AM 33.6839 -85.2547 166° South 468 539 42,900 -500 Descending Atlanta Center
Fri 11:14:20 AM 33.5550 -85.2153 166° South 468 539 42,000 -900 Descending Atlanta Center
Fri 11:15:20 AM 33.4258 -85.1789 167° South 473 544 41,100 -550 Descending Atlanta Center
Fri 11:16:20 AM 33.2864 -85.1372 166° South 498 573 40,900 -450 Descending Atlanta Center
Fri 11:17:20 AM 33.1553 -85.0983 166° South 503 579 40,200 -700 Descending Atlanta Center
Fri 11:18:20 AM 33.0178 -85.0594 167° South 503 579 39,500 -550 Descending Atlanta Center
Fri 11:19:20 AM 32.8761 -85.0183 166° South 515 593 39,100 -250 Descending Atlanta Center
Fri 11:20:20 AM 32.7553 -84.9800 165° South 517 595 39,000 -50 Descending Atlanta Center
Fri 11:21:20 AM 32.6033 -84.9364 166° South 530 610 39,000  Level Atlanta Center
Fri 11:22:20 AM 32.4617 -84.8981 167° South 530 610 39,000  Level Atlanta Center
Fri 11:23:20 AM 32.3178 -84.8572 167° South 530 610 39,000  Level Atlanta Center
Fri 11:27:22 AM 31.7444 -84.7003 167° South 522 601 39,000  Level Jacksonville Center
Fri 11:28:22 AM 31.6008 -84.6611 167° South 522 601 39,000  Level Jacksonville Center
Fri 11:29:22 AM 31.4617 -84.6144 164° South 527 606 39,000  Level Jacksonville Center
Fri 11:30:22 AM 31.3247 -84.5536 159° South 527 606 39,000  Level Jacksonville Center
Fri 11:31:22 AM 31.1878 -84.4906 158° South 527 606 39,000  Level Jacksonville Center
Fri 11:32:22 AM 31.0361 -84.4250 160° South 527 606 39,000  Level Jacksonville Center
Fri 11:33:22 AM 30.9011 -84.3647 159° South 527 606 39,000  Level Jacksonville Center
Fri 11:34:22 AM 30.7661 -84.3044 159° South 527 606 39,000  Level Jacksonville Center
Fri 11:35:22 AM 30.6289 -84.2444 159° South 527 606 39,000  Level Jacksonville Center
Fri 11:36:22 AM 30.5106 -84.1922 159° South 527 606 39,000  Level Jacksonville Center
Fri 11:37:22 AM 30.3753 -84.1350 160° South 517 595 39,000  Level Jacksonville Center
Fri 11:38:22 AM 30.2361 -84.0756 160° South 517 595 39,000  Level Jacksonville Center
Fri 11:39:22 AM 30.1028 -84.0186 160° South 522 601 39,000  Level Jacksonville Center
Fri 11:40:22 AM 29.9697 -83.9619 160° South 522 601 39,000  Level Jacksonville Center
Fri 11:41:22 AM 29.8367 -83.9031 159° South 522 601 39,000  Level Jacksonville Center
Fri 11:42:22 AM 29.7078 -83.8253 152° Southeast 522 601 39,000  Level Jacksonville Center
Fri 11:43:22 AM 29.5831 -83.7428 150° Southeast 522 601 39,000  Level Jacksonville Center
Fri 11:44:22 AM 29.4561 -83.6631 151° Southeast 517 595 39,000  Level Jacksonville Center
Fri 11:45:22 AM 29.3294 -83.5833 151° Southeast 522 601 39,000  Level Jacksonville Center
Fri 11:46:22 AM 29.1983 -83.5133 155° Southeast 517 595 39,000 -150 Level Jacksonville Center
Fri 11:47:22 AM 29.0692 -83.4414 154° Southeast 512 589 38,700 -1,000 Descending Jacksonville Center
Fri 11:48:22 AM 28.9400 -83.3742 156° South 512 589 37,000 -2,050 Descending Jacksonville Center
Fri 11:49:22 AM 28.8128 -83.3050 155° Southeast 512 589 34,600 -2,550 Descending Jacksonville Center
Fri 11:50:22 AM 28.6858 -83.2358 154° Southeast 507 583 31,900 -2,800 Descending Jacksonville Center
Fri 11:51:22 AM 28.5586 -83.1692 155° Southeast 507 583 29,000 -3,188 Descending Jacksonville Center
Fri 11:53:34 AM 28.2747 -83.0200 155° Southeast 495 570 21,700 -3,031 Descending Miami Center
Fri 11:54:34 AM 28.1606 -82.9572 154° Southeast 485 558 19,300 -1,350 Descending Miami Center
Fri 11:55:34 AM 28.0525 -82.9022 156° South 452 520 19,000 -150 Descending Miami Center
Fri 11:56:34 AM 27.9506 -82.8450 154° Southeast 447 514 19,000  Level Miami Center
Fri 11:57:34 AM 27.8383 -82.7850 155° Southeast 447 514 19,000  Level Miami Center
Fri 11:57:55 AM 27.7833 -82.7500 151° Southeast 456 525 19,000 -310 Level Tampa TRACON
Fri 11:58:32 AM 27.7167 -82.7167 156° South 450 518 18,700 -1,113 Descending Tampa TRACON
Fri 11:59:32 AM 27.6167 -82.6667 156° South 431 496 17,200 -1,765 Descending Tampa TRACON
Fri 12:00:31 PM 27.5000 -82.6000 153° Southeast 413 475 15,200 -2,211 Descending Tampa TRACON
Fri 12:01:26 PM 27.4167 -82.5500 152° Southeast 368 423 13,000 -2,579 Descending Tampa TRACON
Fri 12:02:32 PM 27.3167 -82.5000 156° South 355 409 10,000 -2,667 Descending Tampa TRACON
Fri 12:03:32 PM 27.2333 -82.4667 160° South 313 360 7,400 -1,945 Descending Tampa TRACON
Fri 12:05:34 PM 27.1031 -82.3858 151° Southeast 296 341 4,100 -1,484 Descending Miami Center
Fri 12:06:34 PM 27.0356 -82.3500 155° Southeast 286 329 2,900 -600 Descending Miami Center
Fri 12:07:34 PM 26.9722 -82.3167 155° Southeast 265 305 2,900 -100 Level Miami Center
Fri 12:08:34 PM 26.8983 -82.2783 155° Southeast 265 305 2,700 5,050 Descending Miami Center
Fri 12:09:34 PM 26.8328 -82.2475 157° South 265 305 13,000 5,150 Climbing Miami Center
Fri 12:10:34 PM 26.7650 -82.2142 156° South 265 305 13,000  Level Miami Center
Fri 12:11:34 PM 26.7117 -82.1883 157° South 265 305 13,000  Level Miami Center
Fri 12:14:00 PM 26.8500 -82.2500 338° Northwest  Level FlightAware Approximate
Fri 12:21:00 PM 26.8548 -82.2511 338° Northwest  Level Estimated
Fri 12:22:00 PM 26.8500 -82.2500 338° Northwest  Level FlightAware Approximate
Fri 12:23:00 PM 26.8548 -82.2511 338° Northwest  Level Estimated
Fri 12:24:00 PM 26.8500 -82.2500 338° Northwest  Level FlightAware Approximate
Fri 12:25:00 PM 26.8548 -82.2511 338° Northwest  Level Estimated

Login

Don't have an account? Register now (free) for customized features, flight alerts, and more!